Taquarussu, Brazil
Current Conditions -  °F | °C
As of 10:00 PM on Friday 31 Oct 2014 (Local Time) from SBMG Reporting Station
Clear Clear  
Wind Chill: 81°   Ceiling: Unl
Heat Index: 83°   Visibility: 6mi
Dew Point: 66°   Wind: 2mph
Humidity: 61%   Direction: 10°N
Pressure: 29.94"   Gusts: NA
Location:  22.49°S, 53.35°W
Report Text: SBMG 010100Z 01002KT CAVOK 27/19 Q1014
Loading
Personal Weather Stations






























Interactive Weather Map
Tropical Storm Tracking
New forecast layout! Learn more

10-Day Weather Forecast

Advertisements
Track Severe Weather on mobile